Cottontown, Tennessee
Current Conditions -  °F | °C
As of 3:53 PM on Wednesday 22 Oct 2014 (Local Time) from KBNA Reporting Station
Clear Clear  
Wind Chill: 63°   Ceiling: Unl
Heat Index: 63°   Visibility: 10mi
Dew Point: 41°   Wind: 9mph
Humidity: 45%   Direction: 50°NE
Pressure: 30.2"   Gusts: NA
Location:  36.45°N, 86.54°W
Report Text: KBNA 222053Z 05008KT 10SM CLR 17/05 A3020 RMK AO2 SLP225 T01720050 56015
Loading
Personal Weather Stations






























Interactive Weather Map
Tropical Storm Tracking
New forecast layout! Learn more

10-Day Weather Forecast

Advertisements
Track Severe Weather on mobile